LFRV

Vannes-Meucon Airport

Airport
ICAO code
LFRV
IATA Code
VNE
Summary
ICAO Region
EUR
ICAO Territory
Location

, Bretagne

Serving
Vannes
Elevation
446 ft
Coordinates
47° 43' 24" N , 2° 43' 7" W
Metar
LFRV 251430Z AUTO 04007KT 010V070 CAVOK 27/17 Q1012

Runways

Designator Length Width Surface Rops
8/26 1025 60 GRS No/No
4/22 1530 45 ASP No/No

Airport map

Aerial View

SKYbrary Partners:

Safety knowledge contributed by: